• Join FlightAware (Why Join?)
  • Login
  • US Flag 
07:14PM EDT


 

Airport Tracker/Info


-or-


 

Live Flight TrackerFlight Track Log ✈ UAL4695 ✈ 13-Apr-2013 ✈ KCHS - KEWR

Flight Track Log - Related Links

Times and Time Zones

All times are in EDT time to prevent confusion due to time zone crossing. See the UAL4695 flight status page for this flight to view local times or setup timezone preferences in your user account.

Time Position Orientation Groundspeed Altitude Reporting Facility
EDT Latitude Longitude Course Direction KTS MPH feet Rate Location/Type
06:11PM 32.9472 -79.9792 17° North 274 315 6,500  Level Jacksonville Center
06:12PM 33.2678 -79.9231 North  Level FlightAware Approximate
06:12PM 33.0156 -79.9644 10° North 274 315 9,400  Level Jacksonville Center
06:13PM 33.3616 -79.8859 23° Northeast  Level FlightAware Approximate
06:13PM 33.0947 -79.9519 North 274 315 11,100  Level Jacksonville Center
06:14PM 33.4591 -79.8641 13° North  Level FlightAware Approximate
06:14PM 33.1839 -79.9342 North 295 339 12,200  Level Jacksonville Center
06:15PM 33.5559 -79.8365 13° North  Level FlightAware Approximate
06:15PM 33.2881 -79.9158 North 336 387 13,300  Level Jacksonville Center
06:16PM 33.6526 -79.8088 13° North  Level FlightAware Approximate
06:16PM 33.3917 -79.8947 10° North 368 423 14,900  Level Jacksonville Center
06:17PM 33.7496 -79.7877 17° North  Level FlightAware Approximate
06:17PM 33.4975 -79.8664 13° North 383 441 16,500  Level Jacksonville Center
06:18PM 33.6075 -79.8353 13° North 392 451 18,000 1,440 Climbing Jacksonville Center
06:19PM 33.7172 -79.8064 12° North 397 457 19,500 1,500 Climbing Jacksonville Center
06:20PM 33.8250 -79.7750 14° North 397 457 21,000 1,500 Climbing Jacksonville Center
06:21PM 33.9369 -79.7436 13° North 397 457 22,500 1,440 Climbing Jacksonville Center
06:22PM 34.0489 -79.7119 13° North 402 463 23,900 1,320 Climbing Jacksonville Center
06:23PM 34.1603 -79.6653 19° North 413 475 25,200 1,260 Climbing Jacksonville Center
06:25PM 34.3858 -79.5478 23° Northeast 438 504 27,700 1,200 Climbing Washington Center
06:26PM 34.4964 -79.4853 25° Northeast 438 504 28,700 960 Climbing Washington Center
06:27PM 34.6153 -79.4278 22° Northeast 443 510 29,700 1,020 Climbing Washington Center
06:28PM 34.7297 -79.3675 23° Northeast 443 510 30,800 1,020 Climbing Washington Center
06:29PM 34.8486 -79.3047 23° Northeast 443 510 31,800 960 Climbing Washington Center
06:30PM 34.9675 -79.2417 23° Northeast 448 516 32,800 960 Climbing Washington Center
06:31PM 35.0861 -79.1786 24° Northeast 453 521 33,800 960 Climbing Washington Center
06:32PM 35.2092 -79.1128 24° Northeast 458 527 34,800 600 Climbing Washington Center
06:33PM 35.3322 -79.0469 24° Northeast 463 533 35,000 60 Climbing Washington Center
06:34PM 35.4592 -78.9811 23° Northeast 474 545 35,000  Level Washington Center
06:35PM 35.5906 -78.9100 24° Northeast 488 562 35,000  Level Washington Center
06:36PM 35.7197 -78.8386 24° Northeast 503 579 35,000  Level Washington Center
06:37PM 35.8511 -78.7697 23° Northeast 503 579 35,000  Level Washington Center
06:38PM 35.9803 -78.6978 24° Northeast 503 579 35,000  Level Washington Center
06:39PM 36.1114 -78.6258 24° Northeast 503 579 35,000  Level Washington Center
06:40PM 36.2406 -78.5536 24° Northeast 503 579 35,000  Level Washington Center
06:41PM 36.3694 -78.4836 24° Northeast 503 579 35,000  Level Washington Center
06:42PM 36.5006 -78.4083 25° Northeast 503 579 35,000  Level Washington Center
06:43PM 36.6317 -78.3381 23° Northeast 503 579 35,000  Level Washington Center
06:44PM 36.7606 -78.2647 25° Northeast 503 579 35,000  Level Washington Center
06:45PM 36.8894 -78.1914 24° Northeast 503 579 35,000  Level Washington Center
06:46PM 37.0183 -78.1178 25° Northeast 503 579 35,000  Level Washington Center
06:47PM 37.1511 -78.0439 24° Northeast 503 579 35,000  Level Washington Center
06:48PM 37.2819 -77.9697 24° Northeast 503 579 35,000  Level Washington Center
06:49PM 37.4128 -77.8953 24° Northeast 503 579 35,000  Level Washington Center
06:50PM 37.5417 -77.8156 26° Northeast 503 579 35,000  Level Washington Center
06:51PM 37.6625 -77.7089 35° Northeast 515 593 35,000 -300 Level Washington Center
06:52PM 37.7831 -77.5992 36° Northeast 525 604 34,400 -540 Descending Washington Center
06:53PM 37.9039 -77.4892 36° Northeast 530 610 34,000 -240 Descending Washington Center
06:54PM 38.0244 -77.3789 36° Northeast 530 610 34,000  Level Washington Center
06:55PM 38.1428 -77.2708 36° Northeast 530 610 34,000  Level Washington Center
06:56PM 38.2611 -77.1597 36° Northeast 530 610 34,000  Level Washington Center
06:57PM 38.3769 -77.0511 36° Northeast 530 610 34,000  Level Washington Center
06:58PM 38.4844 -76.9497 36° Northeast 530 610 34,000  Level Washington Center
06:59PM 38.6047 -76.8403 35° Northeast 530 610 34,000  Level Washington Center
07:00PM 38.7225 -76.7253 37° Northeast 525 604 34,000  Level Washington Center
07:01PM 38.8300 -76.6042 41° Northeast 525 604 34,000 -300 Level Washington Center
07:02PM 38.9414 -76.4750 42° Northeast 525 604 33,500 -960 Descending Washington Center
07:03PM 39.0569 -76.3428 42° Northeast 537 618 32,100 -2,160 Descending Washington Center
07:04PM 39.1703 -76.2100 42° Northeast 547 629 29,200 -2,640 Descending Washington Center
07:05PM 39.2958 -76.0661 42° Northeast 547 629 26,900 -1,140 Descending Washington Center
07:06PM 39.3983 -75.9433 43° Northeast 521 600 27,000  Climbing Washington Center
07:07PM 39.5072 -75.8147 42° Northeast 516 594 27,000 -1,320 Level Washington Center
07:08PM 39.6136 -75.6858 43° Northeast 516 594 24,400 -2,700 Descending Washington Center
07:09PM 39.7156 -75.5672 42° Northeast 511 588 21,700 -2,700 Descending Washington Center
07:10PM 39.8114 -75.4483 44° Northeast 492 566 19,000 -2,400 Descending Washington Center
07:11PM 39.8925 -75.3481 43° Northeast 466 536 16,900 -2,340 Descending Washington Center
07:12PM 39.9775 -75.2478 42° Northeast 437 503 14,400 -2,340 Descending Washington Center
07:13PM 40.0606 -75.1497 42° Northeast 414 476 12,300 -1,680 Descending Washington Center
07:14PM 40.1500 -75.0333 45° Northeast 358 412 10,900 -1,260 Descending New York TRACON
07:15PM 40.2167 -74.9500 44° Northeast 314 361 9,600 -1,440 Descending New York TRACON
07:16PM 40.2667 -74.8833 45° Northeast 301 346 8,100 -840 Descending New York TRACON
07:17PM 40.3167 -74.7833 57° Northeast 311 358 8,000 -660 Descending New York TRACON
07:18PM 40.3333 -74.6833 78° East 308 354 6,800 -1,020 Descending New York TRACON
07:19PM 40.3500 -74.5667 79° East 288 331 6,000 -480 Descending New York TRACON
07:20PM 40.3667 -74.4833 75° East 295 339 6,000  Level New York TRACON
07:21PM 40.4167 -74.4333 37° Northeast 283 326 6,000 -240 Level New York TRACON
07:22PM 40.4667 -74.4833 323° Northwest 261 300 5,600 -540 Descending New York TRACON
07:23PM 40.5500 -74.5000 351° North 262 302 5,000 -300 Descending New York TRACON
07:24PM 40.6167 -74.5167 349° North 268 308 5,000  Level New York TRACON
07:25PM 40.7000 -74.5167 360° North 265 305 5,000  Level New York TRACON
07:26PM 40.7667 -74.5167 360° North 271 312 5,000  Level New York TRACON
07:27PM 40.8500 -74.5167 360° North 270 311 5,000  Level New York TRACON
07:28PM 40.9167 -74.4667 30° Northeast 274 315 5,000  Level New York TRACON
07:29PM 40.9667 -74.4167 37° Northeast 237 273 5,000  Level New York TRACON
07:30PM 41.0000 -74.3333 62° Northeast 248 285 5,000 -120 Level New York TRACON
07:31PM 41.0000 -74.2500 90° East 252 290 4,800 -540 Descending New York TRACON
07:32PM 40.9667 -74.1833 123° Southeast 225 259 4,000 -900 Descending New York TRACON
07:33PM 40.9167 -74.1167 135° Southeast 209 241 3,100 -540 Descending New York TRACON
07:34PM 40.8833 -74.0833 143° Southeast 189 217 3,000 -180 Descending New York TRACON
07:35PM 40.8333 -74.0833 180° South 186 214 2,800 -240 Descending New York TRACON